createdAt,value
2023-04-11T00:00:31.095Z,522.00
2023-04-11T00:01:32.113Z,524.00
2023-04-11T00:02:32.201Z,528.00
2023-04-11T00:03:32.279Z,523.00
2023-04-11T00:04:32.159Z,525.00
2023-04-11T00:05:32.092Z,524.00
2023-04-11T00:06:32.094Z,525.00
2023-04-11T00:07:32.089Z,527.00
2023-04-11T00:08:32.086Z,528.00
2023-04-11T00:09:32.111Z,522.00
2023-04-11T00:10:32.102Z,524.00
2023-04-11T00:11:31.108Z,524.00
2023-04-11T00:12:32.103Z,522.00
2023-04-11T00:13:32.109Z,522.00
2023-04-11T00:14:32.114Z,524.00
2023-04-11T00:15:32.146Z,523.00
2023-04-11T00:16:31.166Z,527.00
2023-04-11T00:17:32.186Z,528.00
2023-04-11T00:18:31.133Z,526.00
2023-04-11T00:19:31.146Z,527.00
2023-04-11T00:20:31.153Z,527.00
2023-04-11T00:21:32.172Z,527.00
2023-04-11T00:22:32.165Z,525.00
2023-04-11T00:23:31.155Z,526.00
2023-04-11T00:24:32.161Z,526.00
2023-04-11T00:25:31.172Z,528.00
2023-04-11T00:26:32.186Z,527.00
2023-04-11T00:27:32.197Z,526.00
2023-04-11T00:28:32.171Z,524.00
2023-04-11T00:29:32.170Z,524.00
2023-04-11T00:30:32.173Z,525.00
2023-04-11T00:31:31.184Z,531.00
2023-04-11T00:32:31.186Z,530.00
2023-04-11T00:33:31.195Z,525.00
2023-04-11T00:34:32.159Z,527.00
2023-04-11T00:35:32.212Z,527.00
2023-04-11T00:36:31.184Z,533.00
2023-04-11T00:37:31.149Z,533.00
2023-04-11T00:38:32.161Z,529.00
2023-04-11T00:39:31.161Z,527.00
2023-04-11T00:40:32.185Z,530.00
2023-04-11T00:41:32.182Z,529.00
2023-04-11T00:42:32.184Z,532.00
2023-04-11T00:43:31.223Z,535.00
2023-04-11T00:44:31.277Z,535.00
2023-04-11T00:45:32.354Z,534.00
2023-04-11T00:46:31.360Z,531.00
2023-04-11T00:47:32.446Z,531.00
2023-04-11T00:48:31.445Z,533.00
2023-04-11T00:49:32.527Z,532.00
2023-04-11T00:50:32.557Z,538.00
2023-04-11T00:51:32.628Z,536.00
2023-04-11T00:52:31.686Z,536.00
2023-04-11T00:53:32.802Z,532.00
2023-04-11T00:54:32.804Z,535.00
2023-04-11T00:55:32.855Z,533.00
2023-04-11T00:56:32.925Z,534.00
2023-04-11T00:57:33.004Z,535.00
2023-04-11T00:58:33.049Z,535.00
2023-04-11T00:59:32.136Z,538.00
2023-04-11T01:00:33.230Z,536.00
2023-04-11T01:01:32.293Z,533.00
2023-04-11T01:02:32.457Z,538.00
2023-04-11T01:03:32.456Z,532.00
2023-04-11T01:04:33.436Z,536.00
2023-04-11T01:05:33.531Z,538.00
2023-04-11T01:06:33.577Z,532.00
2023-04-11T01:07:32.600Z,536.00
2023-04-11T01:08:33.623Z,536.00
2023-04-11T01:09:33.694Z,533.00
2023-04-11T01:10:33.752Z,531.00
2023-04-11T01:11:33.779Z,533.00
2023-04-11T01:12:32.832Z,534.00
2023-04-11T01:13:32.905Z,539.00
2023-04-11T01:14:32.971Z,535.00
2023-04-11T01:15:32.993Z,538.00
2023-04-11T01:16:34.075Z,534.00
2023-04-11T01:17:33.078Z,536.00
2023-04-11T01:18:34.125Z,533.00
2023-04-11T01:19:33.176Z,535.00
2023-04-11T01:20:34.224Z,535.00
2023-04-11T01:21:34.305Z,534.00
2023-04-11T01:22:33.324Z,533.00
2023-04-11T01:23:33.308Z,541.00
2023-04-11T01:24:34.314Z,537.00
2023-04-11T01:25:34.301Z,535.00
2023-04-11T01:26:34.296Z,532.00
2023-04-11T01:27:33.300Z,536.00
2023-04-11T01:28:34.284Z,532.00
2023-04-11T01:29:34.273Z,537.00
2023-04-11T01:30:34.295Z,537.00
2023-04-11T01:31:33.276Z,534.00
2023-04-11T01:32:34.312Z,536.00
2023-04-11T01:33:34.249Z,534.00
2023-04-11T01:34:34.247Z,534.00
2023-04-11T01:35:34.261Z,539.00
2023-04-11T01:36:34.229Z,538.00
2023-04-11T01:37:34.243Z,535.00
2023-04-11T01:38:33.208Z,534.00
2023-04-11T01:39:34.207Z,532.00
2023-04-11T01:40:34.192Z,537.00
2023-04-11T01:41:33.572Z,535.00
2023-04-11T01:42:33.172Z,530.00
2023-04-11T01:43:33.180Z,531.00
2023-04-11T01:44:34.159Z,537.00
2023-04-11T01:45:34.167Z,533.00
2023-04-11T01:46:33.147Z,534.00
2023-04-11T01:47:34.219Z,533.00
2023-04-11T01:48:34.326Z,535.00
2023-04-11T01:49:34.134Z,536.00
2023-04-11T01:50:34.122Z,536.00
2023-04-11T01:51:33.129Z,531.00
2023-04-11T01:52:34.127Z,534.00
2023-04-11T01:53:34.129Z,531.00
2023-04-11T01:54:33.087Z,531.00
2023-04-11T01:55:34.076Z,533.00
2023-04-11T01:56:34.121Z,531.00
2023-04-11T01:57:33.160Z,532.00
2023-04-11T01:58:34.207Z,529.00
2023-04-11T01:59:34.226Z,530.00
2023-04-11T02:00:34.262Z,535.00
2023-04-11T02:01:33.291Z,528.00
2023-04-11T02:02:33.431Z,535.00
2023-04-11T02:03:34.703Z,531.00
2023-04-11T02:04:34.393Z,533.00
2023-04-11T02:05:34.434Z,530.00
2023-04-11T02:06:34.478Z,531.00
2023-04-11T02:07:34.524Z,533.00
2023-04-11T02:08:34.571Z,532.00
2023-04-11T02:09:34.624Z,532.00
2023-04-11T02:10:33.649Z,534.00
2023-04-11T02:11:34.680Z,531.00
2023-04-11T02:12:33.728Z,530.00
2023-04-11T02:13:34.781Z,528.00
2023-04-11T02:14:33.826Z,527.00
2023-04-11T02:15:34.914Z,530.00
2023-04-11T02:16:34.902Z,531.00
2023-04-11T02:17:34.964Z,533.00
2023-04-11T02:18:34.972Z,531.00
2023-04-11T02:19:35.017Z,530.00
2023-04-11T02:20:35.068Z,529.00
2023-04-11T02:21:35.095Z,530.00
2023-04-11T02:22:35.105Z,533.00
2023-04-11T02:23:35.135Z,533.00
2023-04-11T02:24:34.166Z,531.00
2023-04-11T02:25:35.251Z,529.00
2023-04-11T02:26:34.239Z,527.00
2023-04-11T02:27:34.265Z,523.00
2023-04-11T02:28:35.323Z,528.00
2023-04-11T02:29:35.356Z,528.00
2023-04-11T02:30:34.382Z,527.00
2023-04-11T02:31:35.476Z,528.00
2023-04-11T02:32:34.477Z,528.00
2023-04-11T02:33:35.479Z,529.00
2023-04-11T02:34:35.528Z,529.00
2023-04-11T02:35:34.559Z,526.00
2023-04-11T02:36:34.573Z,527.00
2023-04-11T02:37:34.601Z,527.00
2023-04-11T02:38:34.635Z,528.00
2023-04-11T02:39:34.656Z,528.00
2023-04-11T02:40:34.705Z,528.00
2023-04-11T02:41:35.763Z,528.00
2023-04-11T02:42:35.773Z,526.00
2023-04-11T02:43:35.822Z,526.00
2023-04-11T02:44:35.832Z,523.00
2023-04-11T02:45:35.869Z,524.00
2023-04-11T02:46:35.907Z,522.00
2023-04-11T02:47:34.937Z,529.00
2023-04-11T02:48:35.964Z,525.00
2023-04-11T02:49:35.996Z,521.00
2023-04-11T02:50:36.025Z,530.00
2023-04-11T02:51:35.051Z,526.00
2023-04-11T02:52:35.103Z,527.00
2023-04-11T02:53:36.131Z,526.00
2023-04-11T02:54:35.150Z,524.00
2023-04-11T02:55:36.182Z,522.00
2023-04-11T02:56:35.220Z,525.00
2023-04-11T02:57:36.286Z,524.00
2023-04-11T02:58:36.273Z,524.00
2023-04-11T02:59:36.314Z,526.00
2023-04-11T03:00:35.327Z,525.00
2023-04-11T03:01:35.396Z,527.00
2023-04-11T03:02:36.559Z,526.00
2023-04-11T03:03:35.441Z,524.00
2023-04-11T03:04:35.488Z,525.00
2023-04-11T03:05:36.470Z,526.00
2023-04-11T03:06:36.526Z,526.00
2023-04-11T03:07:36.544Z,529.00
2023-04-11T03:08:36.564Z,525.00
2023-04-11T03:09:36.598Z,526.00
2023-04-11T03:10:36.651Z,528.00
2023-04-11T03:11:35.676Z,525.00
2023-04-11T03:12:36.703Z,526.00
2023-04-11T03:13:36.744Z,522.00
2023-04-11T03:14:36.760Z,527.00
2023-04-11T03:15:36.822Z,523.00
2023-04-11T03:16:36.828Z,526.00
2023-04-11T03:17:36.876Z,526.00
2023-04-11T03:18:36.871Z,524.00
2023-04-11T03:19:36.908Z,528.00
2023-04-11T03:20:36.914Z,527.00
2023-04-11T03:21:35.954Z,527.00
2023-04-11T03:22:36.967Z,525.00
2023-04-11T03:23:37.004Z,525.00
2023-04-11T03:24:37.018Z,526.00
2023-04-11T03:25:37.060Z,522.00
2023-04-11T03:26:37.093Z,525.00
2023-04-11T03:27:37.124Z,525.00
2023-04-11T03:28:37.188Z,525.00
2023-04-11T03:29:37.272Z,525.00
2023-04-11T03:30:37.240Z,524.00
2023-04-11T03:31:37.344Z,521.00
2023-04-11T03:32:36.371Z,524.00
2023-04-11T03:33:36.357Z,523.00
2023-04-11T03:34:37.402Z,528.00
2023-04-11T03:35:37.474Z,517.00
2023-04-11T03:36:36.489Z,524.00
2023-04-11T03:37:36.555Z,523.00
2023-04-11T03:38:37.567Z,523.00
2023-04-11T03:39:37.595Z,524.00
2023-04-11T03:40:36.643Z,525.00
2023-04-11T03:41:36.668Z,520.00
2023-04-11T03:42:37.721Z,528.00
2023-04-11T03:43:37.751Z,523.00
2023-04-11T03:44:36.789Z,526.00
2023-04-11T03:45:36.830Z,523.00
2023-04-11T03:46:36.884Z,526.00
2023-04-11T03:47:37.922Z,521.00
2023-04-11T03:48:37.927Z,524.00
2023-04-11T03:49:36.956Z,526.00
2023-04-11T03:50:37.980Z,525.00
2023-04-11T03:51:36.990Z,523.00
2023-04-11T03:52:38.035Z,523.00
2023-04-11T03:53:38.057Z,526.00
2023-04-11T03:54:38.084Z,527.00
2023-04-11T03:55:38.103Z,520.00
2023-04-11T03:56:37.121Z,525.00
2023-04-11T03:57:38.150Z,522.00
2023-04-11T03:58:37.187Z,522.00
2023-04-11T03:59:38.232Z,524.00
2023-04-11T04:00:38.225Z,525.00
2023-04-11T04:01:38.409Z,526.00
2023-04-11T04:02:38.395Z,527.00
2023-04-11T04:03:38.609Z,525.00
2023-04-11T04:04:37.445Z,523.00
2023-04-11T04:05:37.384Z,523.00
2023-04-11T04:06:38.411Z,521.00
2023-04-11T04:07:37.442Z,522.00
2023-04-11T04:08:37.463Z,521.00
2023-04-11T04:09:37.503Z,526.00
2023-04-11T04:10:38.508Z,524.00
2023-04-11T04:11:37.545Z,522.00
2023-04-11T04:12:38.564Z,521.00
2023-04-11T04:13:38.590Z,525.00
2023-04-11T04:14:38.612Z,523.00
2023-04-11T04:15:37.621Z,522.00
2023-04-11T04:16:37.755Z,527.00
2023-04-11T04:17:37.770Z,525.00
2023-04-11T04:18:38.681Z,526.00
2023-04-11T04:19:38.704Z,521.00
2023-04-11T04:20:38.738Z,523.00
2023-04-11T04:21:38.786Z,520.00
2023-04-11T04:22:38.793Z,522.00
2023-04-11T04:23:38.800Z,521.00
2023-04-11T04:24:38.831Z,522.00
2023-04-11T04:25:38.863Z,518.00
2023-04-11T04:26:38.893Z,518.00
2023-04-11T04:27:38.911Z,519.00
2023-04-11T04:28:38.929Z,521.00
2023-04-11T04:29:38.975Z,516.00
2023-04-11T04:30:38.977Z,521.00
2023-04-11T04:31:39.067Z,518.00
2023-04-11T04:32:38.120Z,521.00
2023-04-11T04:33:39.110Z,521.00
2023-04-11T04:34:38.124Z,517.00
2023-04-11T04:35:38.217Z,518.00
2023-04-11T04:36:39.195Z,516.00
2023-04-11T04:37:39.285Z,515.00
2023-04-11T04:38:38.304Z,520.00
2023-04-11T04:39:40.121Z,517.00
2023-04-11T04:40:39.343Z,514.00
2023-04-11T04:41:39.381Z,519.00
2023-04-11T04:42:39.428Z,520.00
2023-04-11T04:43:39.551Z,520.00
2023-04-11T04:44:39.452Z,519.00
2023-04-11T04:45:39.538Z,520.00
2023-04-11T04:46:38.523Z,520.00
2023-04-11T04:47:39.609Z,517.00
2023-04-11T04:48:38.585Z,515.00
2023-04-11T04:49:39.649Z,519.00
2023-04-11T04:50:39.652Z,516.00
2023-04-11T04:51:39.669Z,518.00
2023-04-11T04:52:39.717Z,521.00
2023-04-11T04:53:39.790Z,520.00
2023-04-11T04:54:39.790Z,520.00
2023-04-11T04:55:38.824Z,521.00
2023-04-11T04:56:39.871Z,520.00
2023-04-11T04:57:38.909Z,521.00
2023-04-11T04:58:39.949Z,517.00
2023-04-11T04:59:38.988Z,516.00
2023-04-11T05:00:40.003Z,518.00
2023-04-11T05:01:40.369Z,520.00
2023-04-11T05:02:40.194Z,520.00
2023-04-11T05:03:40.195Z,520.00
2023-04-11T05:04:40.200Z,521.00
2023-04-11T05:05:40.274Z,520.00
2023-04-11T05:06:40.273Z,522.00
2023-04-11T05:07:39.297Z,524.00
2023-04-11T05:08:40.335Z,516.00
2023-04-11T05:09:40.369Z,517.00
2023-04-11T05:10:40.410Z,520.00
2023-04-11T05:11:40.443Z,521.00
2023-04-11T05:12:40.467Z,523.00
2023-04-11T05:13:40.489Z,521.00
2023-04-11T05:14:40.534Z,520.00
2023-04-11T05:15:39.555Z,520.00
2023-04-11T05:16:40.588Z,518.00
2023-04-11T05:17:40.654Z,522.00
2023-04-11T05:18:40.678Z,522.00
2023-04-11T05:19:40.680Z,522.00
2023-04-11T05:20:40.697Z,520.00
2023-04-11T05:21:39.741Z,521.00
2023-04-11T05:22:40.731Z,520.00
2023-04-11T05:23:40.737Z,521.00
2023-04-11T05:24:39.791Z,520.00
2023-04-11T05:25:39.819Z,521.00
2023-04-11T05:26:40.835Z,520.00
2023-04-11T05:27:40.839Z,522.00
2023-04-11T05:28:40.870Z,519.00
2023-04-11T05:29:40.886Z,518.00
2023-04-11T05:30:40.969Z,523.00
2023-04-11T05:31:40.934Z,521.00
2023-04-11T05:32:40.999Z,522.00
2023-04-11T05:33:39.993Z,523.00
2023-04-11T05:34:41.020Z,522.00
2023-04-11T05:35:41.097Z,523.00
2023-04-11T05:36:40.078Z,526.00
2023-04-11T05:37:41.109Z,523.00
2023-04-11T05:38:41.130Z,528.00
2023-04-11T05:39:40.089Z,528.00
2023-04-11T05:40:41.129Z,530.00
2023-04-11T05:41:41.141Z,528.00
2023-04-11T05:42:41.145Z,528.00
2023-04-11T05:43:40.153Z,532.00
2023-04-11T05:44:40.147Z,538.00
2023-04-11T05:45:41.197Z,539.00
2023-04-11T05:46:41.232Z,544.00
2023-04-11T05:47:41.234Z,548.00
2023-04-11T05:48:41.224Z,552.00
2023-04-11T05:49:41.135Z,553.00
2023-04-11T05:50:40.190Z,553.00
2023-04-11T05:51:41.167Z,558.00
2023-04-11T05:52:40.215Z,566.00
2023-04-11T05:53:41.271Z,566.00
2023-04-11T05:54:41.304Z,578.00
2023-04-11T05:55:40.345Z,589.00
2023-04-11T05:56:41.475Z,595.00
2023-04-11T05:57:41.482Z,593.00
2023-04-11T05:58:41.579Z,614.00
2023-04-11T05:59:41.571Z,627.00
2023-04-11T06:00:40.646Z,661.00
2023-04-11T06:01:41.761Z,1213.00
2023-04-11T06:02:41.970Z,1235.00
2023-04-11T06:03:40.970Z,1259.00
2023-04-11T06:04:41.192Z,1251.00
2023-04-11T06:05:41.940Z,1122.00
2023-04-11T06:06:41.992Z,1064.00
2023-04-11T06:07:42.011Z,1042.00
2023-04-11T06:08:41.111Z,1026.00
2023-04-11T06:09:42.130Z,1070.00
2023-04-11T06:10:41.116Z,1086.00
2023-04-11T06:11:41.150Z,1132.00
2023-04-11T06:12:41.186Z,1136.00
2023-04-11T06:13:42.211Z,1137.00
2023-04-11T06:14:42.522Z,1160.00
2023-04-11T06:15:42.312Z,1161.00
2023-04-11T06:16:42.515Z,1150.00
2023-04-11T06:17:42.407Z,1149.00
2023-04-11T06:18:42.504Z,1139.00
2023-04-11T06:19:41.310Z,1160.00
2023-04-11T06:20:41.302Z,1139.00
2023-04-11T06:21:42.332Z,1150.00
2023-04-11T06:22:41.362Z,1182.00
2023-04-11T06:23:42.381Z,1172.00
2023-04-11T06:24:42.339Z,1186.00
2023-04-11T06:25:42.381Z,1212.00
2023-04-11T06:26:42.342Z,1217.00
2023-04-11T06:27:42.406Z,1231.00
2023-04-11T06:28:41.358Z,1231.00
2023-04-11T06:29:41.367Z,1238.00
2023-04-11T06:30:42.592Z,1303.00
2023-04-11T06:31:42.679Z,1332.00
2023-04-11T06:32:42.461Z,1349.00
2023-04-11T06:33:42.393Z,1328.00
2023-04-11T06:34:42.403Z,1342.00
2023-04-11T06:35:41.372Z,1321.00
2023-04-11T06:36:42.588Z,1362.00
2023-04-11T06:37:42.483Z,1356.00
2023-04-11T06:38:41.334Z,1357.00
2023-04-11T06:39:42.378Z,1347.00
2023-04-11T06:40:42.363Z,1377.00
2023-04-11T06:41:42.386Z,1411.00
2023-04-11T06:42:41.597Z,1452.00
2023-04-11T06:43:42.406Z,1449.00
2023-04-11T06:44:41.387Z,1443.00
2023-04-11T06:45:41.442Z,1451.00
2023-04-11T06:46:42.498Z,1454.00
2023-04-11T06:47:42.621Z,1459.00
2023-04-11T06:48:41.621Z,1470.00
2023-04-11T06:49:42.656Z,1554.00
2023-04-11T06:50:41.687Z,1564.00
2023-04-11T06:51:42.790Z,1570.00
2023-04-11T06:52:42.826Z,1466.00
2023-04-11T06:53:42.228Z,1602.00
2023-04-11T06:54:42.777Z,1534.00
2023-04-11T06:55:42.801Z,1515.00
2023-04-11T06:56:42.826Z,1492.00
2023-04-11T06:57:42.921Z,1501.00
2023-04-11T06:58:43.192Z,1505.00
2023-04-11T06:59:42.973Z,1488.00
2023-04-11T07:00:43.000Z,1496.00
2023-04-11T07:01:42.102Z,1486.00
2023-04-11T07:02:42.223Z,1467.00
2023-04-11T07:03:43.218Z,1470.00
2023-04-11T07:04:43.127Z,1455.00
2023-04-11T07:05:42.024Z,1462.00
2023-04-11T07:06:42.730Z,1444.00
2023-04-11T07:07:43.010Z,1453.00
2023-04-11T07:08:43.010Z,1449.00
2023-04-11T07:09:43.043Z,1425.00
2023-04-11T07:10:43.036Z,1432.00
2023-04-11T07:11:43.032Z,1426.00
2023-04-11T07:12:43.045Z,1425.00
2023-04-11T07:13:42.312Z,1419.00
2023-04-11T07:14:43.119Z,1403.00
2023-04-11T07:15:42.098Z,1398.00
2023-04-11T07:16:43.366Z,1399.00
2023-04-11T07:17:42.194Z,1397.00
2023-04-11T07:18:43.166Z,1386.00
2023-04-11T07:19:43.191Z,1380.00
2023-04-11T07:20:42.266Z,1369.00
2023-04-11T07:21:43.246Z,1376.00
2023-04-11T07:22:43.304Z,1369.00
2023-04-11T07:23:43.352Z,1361.00
2023-04-11T07:24:43.322Z,1359.00
2023-04-11T07:25:43.362Z,1337.00
2023-04-11T07:26:43.434Z,1346.00
2023-04-11T07:27:43.406Z,1350.00
2023-04-11T07:28:42.496Z,1322.00
2023-04-11T07:29:43.515Z,1331.00
2023-04-11T07:30:43.526Z,1320.00
2023-04-11T07:31:42.691Z,1308.00
2023-04-11T07:32:43.621Z,1306.00
2023-04-11T07:33:43.639Z,1300.00
2023-04-11T07:34:42.723Z,1302.00
2023-04-11T07:35:43.758Z,1297.00
2023-04-11T07:36:42.746Z,1278.00
2023-04-11T07:37:43.770Z,1271.00
2023-04-11T07:38:43.817Z,1266.00
2023-04-11T07:39:43.855Z,1267.00
2023-04-11T07:40:43.888Z,1256.00
2023-04-11T07:41:43.911Z,1258.00
2023-04-11T07:42:43.932Z,1249.00
2023-04-11T07:43:43.985Z,1230.00
2023-04-11T07:44:43.990Z,1244.00
2023-04-11T07:45:44.095Z,1242.00
2023-04-11T07:46:44.135Z,1240.00
2023-04-11T07:47:43.147Z,1225.00
2023-04-11T07:48:44.265Z,1256.00
2023-04-11T07:49:43.310Z,1233.00
2023-04-11T07:50:44.226Z,1233.00
2023-04-11T07:51:44.273Z,1224.00
2023-04-11T07:52:44.293Z,1227.00
2023-04-11T07:53:44.919Z,1230.00
2023-04-11T07:54:44.343Z,1223.00
2023-04-11T07:55:44.389Z,1231.00
2023-04-11T07:56:44.403Z,1205.00
2023-04-11T07:57:44.425Z,1215.00
2023-04-11T07:58:44.453Z,1214.00
2023-04-11T07:59:43.476Z,1218.00
2023-04-11T08:00:44.515Z,1202.00
2023-04-11T08:01:44.828Z,1206.00
2023-04-11T08:02:44.703Z,1191.00
2023-04-11T08:03:44.769Z,1196.00
2023-04-11T08:04:43.863Z,1201.00
2023-04-11T08:05:43.673Z,1191.00
2023-04-11T08:06:44.687Z,1192.00
2023-04-11T08:07:44.720Z,1188.00
2023-04-11T08:08:45.199Z,1185.00
2023-04-11T08:09:44.807Z,1185.00
2023-04-11T08:10:45.718Z,1180.00
2023-04-11T08:11:43.840Z,1177.00
2023-04-11T08:12:44.847Z,1172.00
2023-04-11T08:13:44.900Z,1155.00
2023-04-11T08:14:44.894Z,1155.00
2023-04-11T08:15:44.943Z,1165.00
2023-04-11T08:16:44.977Z,1155.00
2023-04-11T08:17:44.158Z,1148.00
2023-04-11T08:18:43.986Z,1154.00
2023-04-11T08:19:45.024Z,1137.00
2023-04-11T08:20:45.025Z,1139.00
2023-04-11T08:21:44.062Z,1138.00
2023-04-11T08:22:44.052Z,1138.00
2023-04-11T08:23:45.157Z,1137.00
2023-04-11T08:24:44.110Z,1136.00
2023-04-11T08:25:45.137Z,1136.00
2023-04-11T08:26:44.173Z,1126.00
2023-04-11T08:27:45.201Z,1131.00
2023-04-11T08:28:45.249Z,1113.00
2023-04-11T08:29:45.231Z,1114.00
2023-04-11T08:30:44.287Z,1097.00
2023-04-11T08:31:44.276Z,1111.00
2023-04-11T08:32:45.668Z,1101.00
2023-04-11T08:33:44.326Z,1096.00
2023-04-11T08:34:45.457Z,1099.00
2023-04-11T08:35:45.421Z,1090.00
2023-04-11T08:36:44.393Z,1082.00
2023-04-11T08:37:45.427Z,1087.00
2023-04-11T08:38:45.500Z,1090.00
2023-04-11T08:39:45.490Z,1085.00
2023-04-11T08:40:45.524Z,1071.00
2023-04-11T08:41:45.525Z,1069.00
2023-04-11T08:42:44.603Z,1070.00
2023-04-11T08:43:45.720Z,1076.00
2023-04-11T08:44:45.645Z,1078.00
2023-04-11T08:45:45.642Z,1085.00
2023-04-11T08:46:44.641Z,1107.00
2023-04-11T08:47:46.150Z,1091.00
2023-04-11T08:48:45.705Z,1074.00
2023-04-11T08:49:45.670Z,1082.00
2023-04-11T08:50:45.683Z,1084.00
2023-04-11T08:51:45.684Z,1115.00
2023-04-11T08:52:45.343Z,1112.00
2023-04-11T08:53:46.221Z,1146.00
2023-04-11T08:54:45.722Z,1157.00
2023-04-11T08:55:45.719Z,1155.00
2023-04-11T08:56:45.790Z,1149.00
2023-04-11T08:57:45.735Z,1168.00
2023-04-11T08:58:46.237Z,1175.00
2023-04-11T08:59:45.770Z,1174.00
2023-04-11T09:00:44.805Z,1177.00
2023-04-11T09:01:45.169Z,1190.00
2023-04-11T09:02:44.947Z,1177.00
2023-04-11T09:03:45.893Z,1188.00
2023-04-11T09:04:45.138Z,1178.00
2023-04-11T09:05:45.996Z,1156.00
2023-04-11T09:06:45.973Z,1177.00
2023-04-11T09:07:45.966Z,1171.00
2023-04-11T09:08:44.966Z,1177.00
2023-04-11T09:09:45.993Z,1175.00
2023-04-11T09:10:45.958Z,1182.00
2023-04-11T09:11:44.972Z,1180.00
2023-04-11T09:12:45.985Z,1165.00
2023-04-11T09:13:44.981Z,1167.00
2023-04-11T09:14:46.037Z,1151.00
2023-04-11T09:15:45.237Z,1164.00
2023-04-11T09:16:46.019Z,1151.00
2023-04-11T09:17:45.100Z,1154.00
2023-04-11T09:18:45.052Z,1148.00
2023-04-11T09:19:47.496Z,1153.00
2023-04-11T09:20:46.045Z,1183.00
2023-04-11T09:21:46.037Z,1170.00
2023-04-11T09:22:46.047Z,1161.00
2023-04-11T09:23:46.036Z,1170.00
2023-04-11T09:24:46.009Z,1166.00
2023-04-11T09:25:45.995Z,1157.00
2023-04-11T09:26:46.005Z,1141.00
2023-04-11T09:27:44.997Z,1155.00
2023-04-11T09:28:46.018Z,1154.00
2023-04-11T09:29:45.022Z,1144.00
2023-04-11T09:30:44.978Z,1155.00
2023-04-11T09:31:46.012Z,1148.00
2023-04-11T09:32:46.002Z,1136.00
2023-04-11T09:33:44.958Z,1137.00
2023-04-11T09:34:46.071Z,1130.00
2023-04-11T09:35:45.971Z,1139.00
2023-04-11T09:36:44.961Z,1120.00
2023-04-11T09:37:45.920Z,1132.00
2023-04-11T09:38:45.916Z,1137.00
2023-04-11T09:39:46.218Z,1124.00
2023-04-11T09:40:45.944Z,1137.00
2023-04-11T09:41:45.913Z,1124.00
2023-04-11T09:42:44.889Z,1126.00
2023-04-11T09:43:44.895Z,1121.00
2023-04-11T09:44:45.887Z,1122.00
2023-04-11T09:45:54.156Z,1124.00
2023-04-11T09:46:45.934Z,1126.00
2023-04-11T09:47:45.902Z,1129.00
2023-04-11T09:48:46.944Z,1131.00
2023-04-11T09:49:46.238Z,1144.00
2023-04-11T09:50:45.855Z,1140.00
2023-04-11T09:51:45.842Z,1159.00
2023-04-11T09:52:45.860Z,1214.00
2023-04-11T09:53:45.922Z,1182.00
2023-04-11T09:54:44.870Z,1220.00
2023-04-11T09:55:45.861Z,1225.00
2023-04-11T09:56:44.936Z,1225.00
2023-04-11T09:57:45.915Z,1253.00
2023-04-11T09:58:44.843Z,1271.00
2023-04-11T09:59:45.921Z,1283.00
2023-04-11T10:00:44.892Z,1289.00
2023-04-11T10:01:46.026Z,1328.00
2023-04-11T10:02:46.250Z,1303.00
2023-04-11T10:03:46.035Z,1320.00
2023-04-11T10:04:45.291Z,1324.00
2023-04-11T10:05:46.091Z,1322.00
2023-04-11T10:06:46.167Z,1336.00
2023-04-11T10:07:46.211Z,1345.00
2023-04-11T10:08:46.243Z,1354.00
2023-04-11T10:09:46.296Z,1369.00
2023-04-11T10:10:46.365Z,1382.00
2023-04-11T10:11:46.419Z,1407.00
2023-04-11T10:12:45.518Z,1424.00
2023-04-11T10:13:46.588Z,1423.00
2023-04-11T10:14:46.564Z,1434.00
2023-04-11T10:15:46.643Z,1473.00
2023-04-11T10:16:46.703Z,1458.00
2023-04-11T10:17:45.823Z,1471.00
2023-04-11T10:18:47.067Z,1487.00
2023-04-11T10:19:45.900Z,1522.00
2023-04-11T10:20:46.060Z,1513.00
2023-04-11T10:21:47.016Z,1529.00
2023-04-11T10:22:47.099Z,1536.00
2023-04-11T10:23:47.139Z,1531.00
2023-04-11T10:24:47.227Z,1546.00
2023-04-11T10:25:47.248Z,1568.00
2023-04-11T10:26:47.333Z,1589.00
2023-04-11T10:27:46.391Z,1569.00
2023-04-11T10:28:47.392Z,1575.00
2023-04-11T10:29:49.230Z,1590.00
2023-04-11T10:30:47.463Z,1591.00
2023-04-11T10:31:47.602Z,1594.00
2023-04-11T10:32:47.496Z,1608.00
2023-04-11T10:33:47.424Z,1623.00
2023-04-11T10:34:46.418Z,1633.00
2023-04-11T10:35:47.461Z,1667.00
2023-04-11T10:36:47.524Z,1667.00
2023-04-11T10:37:47.394Z,1675.00
2023-04-11T10:38:47.524Z,1663.00
2023-04-11T10:39:46.421Z,1679.00
2023-04-11T10:40:47.397Z,1698.00
2023-04-11T10:41:47.378Z,1689.00
2023-04-11T10:42:47.389Z,1681.00
2023-04-11T10:43:47.405Z,1663.00
2023-04-11T10:44:47.769Z,1680.00
2023-04-11T10:45:47.413Z,1678.00
2023-04-11T10:46:47.424Z,1668.00
2023-04-11T10:47:47.376Z,1678.00
2023-04-11T10:48:47.337Z,1674.00
2023-04-11T10:49:47.372Z,1663.00
2023-04-11T10:50:47.342Z,1663.00
2023-04-11T10:51:46.335Z,1651.00
2023-04-11T10:52:47.287Z,1659.00
2023-04-11T10:53:46.297Z,1649.00
2023-04-11T10:54:47.342Z,1653.00
2023-04-11T10:55:47.305Z,1632.00
2023-04-11T10:56:47.317Z,1636.00
2023-04-11T10:57:47.263Z,1628.00
2023-04-11T10:58:47.263Z,1622.00
2023-04-11T10:59:47.258Z,1622.00
2023-04-11T11:00:47.301Z,1620.00
2023-04-11T11:01:52.396Z,1620.00
2023-04-11T11:02:47.478Z,1621.00
2023-04-11T11:03:46.384Z,1623.00
2023-04-11T11:04:47.517Z,1621.00
2023-04-11T11:05:47.280Z,1610.00
2023-04-11T11:06:54.645Z,1618.00
2023-04-11T11:07:47.316Z,1620.00
2023-04-11T11:08:47.261Z,1602.00
2023-04-11T11:09:46.246Z,1607.00
2023-04-11T11:10:46.303Z,1589.00
2023-04-11T11:11:46.239Z,1601.00
2023-04-11T11:12:46.348Z,1594.00
2023-04-11T11:13:46.232Z,1587.00
2023-04-11T11:14:47.547Z,1575.00
2023-04-11T11:15:47.209Z,1566.00
2023-04-11T11:16:47.224Z,1573.00
2023-04-11T11:17:47.308Z,1566.00
2023-04-11T11:18:46.280Z,1553.00
2023-04-11T11:19:47.369Z,1544.00
2023-04-11T11:20:46.266Z,1549.00
2023-04-11T11:21:47.279Z,1543.00
2023-04-11T11:22:47.332Z,1539.00
2023-04-11T11:23:47.325Z,1525.00
2023-04-11T11:24:47.750Z,1538.00
2023-04-11T11:25:55.351Z,1509.00
2023-04-11T11:26:47.388Z,1511.00
2023-04-11T11:27:47.323Z,1512.00
2023-04-11T11:28:47.387Z,1513.00
2023-04-11T11:29:47.345Z,1514.00
2023-04-11T11:30:46.336Z,1497.00
2023-04-11T11:31:47.345Z,1499.00
2023-04-11T11:32:46.329Z,1508.00
2023-04-11T11:33:47.297Z,1506.00
2023-04-11T11:34:47.295Z,1495.00
2023-04-11T11:35:47.292Z,1487.00
2023-04-11T11:36:47.360Z,1469.00
2023-04-11T11:37:47.302Z,1459.00
2023-04-11T11:38:47.273Z,1458.00
2023-04-11T11:39:47.262Z,1467.00
2023-04-11T11:40:47.279Z,1452.00
2023-04-11T11:41:47.243Z,1446.00
2023-04-11T11:42:47.229Z,1451.00
2023-04-11T11:43:47.230Z,1441.00
2023-04-11T11:44:46.270Z,1441.00
2023-04-11T11:45:47.296Z,1432.00
2023-04-11T11:46:47.200Z,1438.00
2023-04-11T11:47:47.258Z,1428.00
2023-04-11T11:48:46.231Z,1429.00
2023-04-11T11:49:46.257Z,1423.00
2023-04-11T11:50:46.253Z,1403.00
2023-04-11T11:51:47.290Z,1409.00
2023-04-11T11:52:46.303Z,1409.00
2023-04-11T11:53:46.315Z,1394.00
2023-04-11T11:54:47.405Z,1384.00
2023-04-11T11:55:47.371Z,1389.00
2023-04-11T11:56:46.402Z,1390.00
2023-04-11T11:57:46.419Z,1398.00
2023-04-11T11:58:46.455Z,1381.00
2023-04-11T11:59:47.480Z,1385.00
2023-04-11T12:00:47.538Z,1383.00
2023-04-11T12:01:46.607Z,1360.00
2023-04-11T12:02:47.684Z,1365.00
2023-04-11T12:03:47.699Z,1367.00
2023-04-11T12:04:47.858Z,1351.00
2023-04-11T12:05:46.667Z,1336.00
2023-04-11T12:06:47.689Z,1336.00
2023-04-11T12:07:47.685Z,1350.00
2023-04-11T12:08:47.748Z,1349.00
2023-04-11T12:09:47.737Z,1326.00
2023-04-11T12:10:47.750Z,1326.00
2023-04-11T12:11:47.768Z,1319.00
2023-04-11T12:12:53.817Z,1322.00
2023-04-11T12:13:47.815Z,1323.00
2023-04-11T12:14:47.803Z,1326.00
2023-04-11T12:15:47.815Z,1312.00
2023-04-11T12:16:47.864Z,1310.00